Main page
METAR-TAF:

METAR-TAF

Airports :

Friedrichshafen, Germany

Friedrichshafen Airport

latitude: 47-40N, longitude: 009-31E, elevation: 416 m

Current weather observation

The report was made 40 minutes ago, at 02:20 UTC
Wind 3 kt from variable directions
Temperature 13°C
Humidity 82%
Pressure 1020 hPa
Visibility 10 km or more

METAR: EDNY 280220Z AUTO VRB03KT 9999 13/10 Q1020

Time: 05:00 (03:00 UTC)

Forecast

The report was made 4 hours and 0 minutes ago, at 23:00 UTC
Forecast valid from 28 at 00 UTC to 28 at 24 UTC
Wind 3 kt from the North/Northeast
Visibility 10 km or more
no clouds below 1500 m and no cumulonimbus
Becoming
from 28 at 08 UTC to 28 at 10 UTC
Wind 5 kt from the Southwest
Becoming
from 28 at 17 UTC to 28 at 19 UTC
Wind 3 kt from variable directions

TAF: EDNY 272300Z 2800/2824 03003KT CAVOK BECMG 2808/2810 23005KT BECMG 2817/2819 VRB03KT

Weather observations and forecasts of more than 4000 airports (METAR and TAF reports).

The available stations are represented by yellow and red dots on the map.

Hover mouse over dot to see the name of the station.

Then click to see weather observations and forecasts.

To change the map : click on the green buttons with a black cross to zoom in, on the green button with a dash to zoom out, or on the green arrows for adjacent maps.


METAR-TAF: